Time;durP1;ratioP1;P1;durP2;ratioP2;P2;SDS_P1;SDS_P2;PMS_P1;PMS_P2;Temp;Humidity;BMP_temperature;BMP_pressure;BME280_temperature;BME280_humidity;BME280_pressure;Samples;Min_cycle;Max_cycle;Signal;HPM_P1;HPM_P2
2024/03/21 00:01:33;;;;;;;8.90;3.53;;;14.40;99.90;;;;;;4159420;28;20084;-59
2024/03/21 00:03:34;;;;;;;4.20;3.30;;;14.40;99.90;;;;;;4159813;28;20112;-60
2024/03/21 00:05:35;;;;;;;5.85;3.63;;;14.30;99.90;;;;;;4157923;28;20037;-64
2024/03/21 00:07:35;;;;;;;7.18;3.47;;;14.30;99.90;;;;;;4160837;28;20033;-64
2024/03/21 00:09:38;;;;;;;5.97;3.60;;;14.30;99.90;;;;;;4161112;28;20034;-64
2024/03/21 00:11:39;;;;;;;6.35;3.53;;;14.20;99.90;;;;;;4159876;28;20030;-65
2024/03/21 00:13:39;;;;;;;6.95;4.15;;;14.20;99.90;;;;;;4160819;28;20033;-65
2024/03/21 00:15:41;;;;;;;6.03;4.65;;;14.20;99.90;;;;;;4158776;28;20050;-65
2024/03/21 00:17:42;;;;;;;12.95;5.93;;;14.20;99.90;;;;;;4160154;28;20056;-64
2024/03/21 00:19:43;;;;;;;8.10;6.15;;;14.20;99.90;;;;;;4161009;28;20378;-64
2024/03/21 00:21:48;;;;;;;12.55;6.88;;;14.20;99.90;;;;;;4160261;28;20038;-64
2024/03/21 00:23:49;;;;;;;8.68;6.10;;;14.20;99.90;;;;;;4159069;28;20107;-64
2024/03/21 00:25:49;;;;;;;11.23;6.30;;;14.10;99.90;;;;;;4160000;28;20037;-64
2024/03/21 00:27:51;;;;;;;8.88;6.38;;;14.10;99.90;;;;;;4159229;28;20409;-64
2024/03/21 00:29:51;;;;;;;10.18;7.18;;;14.10;99.90;;;;;;4161059;28;20050;-64
2024/03/21 00:31:52;;;;;;;10.27;6.97;;;14.10;99.90;;;;;;4158587;28;20060;-64
2024/03/21 00:33:53;;;;;;;13.95;7.25;;;14.00;99.90;;;;;;4161141;28;20040;-64
2024/03/21 00:35:54;;;;;;;10.15;7.47;;;14.00;99.90;;;;;;4158684;28;20080;-64
2024/03/21 00:37:58;;;;;;;12.70;8.48;;;14.00;99.90;;;;;;4160790;28;20030;-64
2024/03/21 00:39:59;;;;;;;12.02;8.75;;;14.00;99.90;;;;;;4159776;28;20052;-64
2024/03/21 00:41:59;;;;;;;14.35;9.38;;;14.00;99.90;;;;;;4160106;28;20029;-64
2024/03/21 00:44:00;;;;;;;13.02;9.38;;;14.00;99.90;;;;;;4160691;28;20038;-65
2024/03/21 00:46:00;;;;;;;15.27;9.60;;;14.00;99.90;;;;;;4159979;28;20044;-64
2024/03/21 00:48:04;;;;;;;12.85;10.07;;;14.10;99.90;;;;;;4159210;28;20534;-64
2024/03/21 00:50:05;;;;;;;16.02;10.27;;;14.00;99.90;;;;;;4160260;28;20034;-65
2024/03/21 00:52:06;;;;;;;13.65;10.40;;;14.00;99.90;;;;;;4160204;28;20038;-64
2024/03/21 00:54:07;;;;;;;13.93;10.27;;;14.00;99.90;;;;;;4160478;28;20044;-65
2024/03/21 00:56:07;;;;;;;14.65;10.23;;;14.00;99.90;;;;;;4158223;28;20057;-64
2024/03/21 00:58:08;;;;;;;13.90;10.07;;;14.00;99.90;;;;;;4159850;28;20054;-64
2024/03/21 01:00:10;;;;;;;15.77;9.43;;;14.00;99.90;;;;;;4157782;28;20034;-64
2024/03/21 01:02:10;;;;;;;13.38;9.43;;;14.00;99.90;;;;;;4160853;28;20383;-65
2024/03/21 01:04:11;;;;;;;12.18;9.05;;;14.00;99.90;;;;;;4160501;28;20041;-65
2024/03/21 01:06:12;;;;;;;18.67;12.38;;;14.00;99.90;;;;;;4157044;28;20449;-64
2024/03/21 01:08:12;;;;;;;18.15;10.88;;;14.00;99.90;;;;;;4158424;28;20099;-64
2024/03/21 01:10:13;;;;;;;15.10;10.77;;;14.00;99.90;;;;;;4159723;28;20478;-65
2024/03/21 01:12:14;;;;;;;15.52;11.27;;;14.00;99.90;;;;;;4175765;28;20049;-64
2024/03/21 01:14:14;;;;;;;19.77;13.50;;;13.90;99.90;;;;;;4155639;28;20044;-64
2024/03/21 01:16:15;;;;;;;18.70;12.73;;;13.90;99.90;;;;;;4162805;28;20068;-67
2024/03/21 01:18:16;;;;;;;22.60;14.63;;;13.90;99.90;;;;;;4162807;28;20508;-68
2024/03/21 01:20:17;;;;;;;20.08;13.32;;;13.80;99.90;;;;;;4176773;28;20041;-67
2024/03/21 01:22:18;;;;;;;22.73;15.90;;;13.80;99.90;;;;;;4163072;28;20037;-67
2024/03/21 01:24:18;;;;;;;25.75;15.93;;;13.80;99.90;;;;;;4163258;28;20033;-68
2024/03/21 01:26:19;;;;;;;25.77;16.48;;;13.80;99.90;;;;;;4162876;28;20152;-68
2024/03/21 01:28:19;;;;;;;25.40;16.80;;;13.80;99.90;;;;;;4163155;28;20405;-68
2024/03/21 01:30:20;;;;;;;21.38;15.27;;;13.70;99.90;;;;;;4161228;28;20034;-67
2024/03/21 01:32:21;;;;;;;23.65;15.27;;;13.70;99.90;;;;;;4163162;28;20118;-68
2024/03/21 01:34:22;;;;;;;25.20;16.42;;;13.70;99.90;;;;;;4163125;28;20032;-68
2024/03/21 01:36:22;;;;;;;20.00;14.23;;;13.70;99.90;;;;;;4153467;28;20037;-68
2024/03/21 01:38:23;;;;;;;20.73;14.55;;;13.70;99.90;;;;;;4162856;28;20413;-67
2024/03/21 01:40:24;;;;;;;20.23;14.27;;;13.70;99.90;;;;;;4162480;28;20041;-68
2024/03/21 01:42:24;;;;;;;22.65;15.20;;;13.70;99.90;;;;;;4178090;28;20036;-67
2024/03/21 01:44:25;;;;;;;28.50;18.17;;;13.70;99.90;;;;;;4162910;28;20101;-68
2024/03/21 01:46:25;;;;;;;24.40;16.08;;;13.70;99.90;;;;;;4162435;28;20033;-68
2024/03/21 01:48:26;;;;;;;28.08;17.92;;;13.70;99.90;;;;;;4162633;28;20072;-67
2024/03/21 01:50:28;;;;;;;24.40;15.70;;;13.70;99.90;;;;;;4160868;28;20508;-67
2024/03/21 01:52:29;;;;;;;20.98;16.33;;;13.60;99.90;;;;;;4162381;28;20057;-67
2024/03/21 01:54:32;;;;;;;27.25;16.48;;;13.60;99.90;;;;;;4159695;28;20033;-67
2024/03/21 01:56:33;;;;;;;19.60;14.57;;;13.60;99.90;;;;;;4159535;28;20025;-67
2024/03/21 01:58:34;;;;;;;22.55;15.52;;;13.60;99.90;;;;;;4162370;28;20053;-68
2024/03/21 02:00:35;;;;;;;22.17;15.00;;;13.60;99.90;;;;;;4162071;28;20034;-67
2024/03/21 02:02:35;;;;;;;27.23;16.92;;;13.60;99.90;;;;;;4162659;28;20033;-68
2024/03/21 02:04:37;;;;;;;23.25;16.00;;;13.60;99.90;;;;;;4162209;28;20410;-67
2024/03/21 02:06:39;;;;;;;22.27;14.25;;;13.60;99.90;;;;;;4160099;28;20048;-68
2024/03/21 02:08:39;;;;;;;19.10;13.45;;;13.60;99.90;;;;;;4162725;28;20037;-67
2024/03/21 02:10:40;;;;;;;23.63;15.90;;;13.60;99.90;;;;;;4162016;28;20442;-67
2024/03/21 02:12:47;;;;;;;25.23;17.20;;;13.60;99.90;;;;;;4162399;28;20191;-67
2024/03/21 02:14:50;;;;;;;26.35;15.95;;;13.60;99.90;;;;;;4162210;28;20985;-68
2024/03/21 02:16:51;;;;;;;24.05;17.42;;;13.60;99.90;;;;;;4144476;28;20026;-68
2024/03/21 02:18:52;;;;;;;24.60;16.75;;;13.60;99.90;;;;;;4160457;28;20483;-68
2024/03/21 02:20:53;;;;;;;22.95;16.42;;;13.60;99.90;;;;;;4161851;28;20034;-68
2024/03/21 02:22:54;;;;;;;22.25;15.80;;;13.60;99.90;;;;;;4158789;28;20122;-68
2024/03/21 02:24:57;;;;;;;26.65;17.35;;;13.60;99.90;;;;;;4162243;28;20037;-67
2024/03/21 02:26:58;;;;;;;27.77;17.65;;;13.60;99.90;;;;;;4161854;28;20374;-68
2024/03/21 02:29:00;;;;;;;26.23;17.50;;;13.60;99.90;;;;;;4162482;28;20120;-67
2024/03/21 02:31:01;;;;;;;21.10;15.15;;;13.50;99.90;;;;;;4159922;28;20447;-67
2024/03/21 02:33:04;;;;;;;22.92;15.48;;;13.60;99.90;;;;;;4156874;28;20077;-68
2024/03/21 02:35:07;;;;;;;21.13;14.13;;;13.60;99.90;;;;;;4161458;28;20044;-70
2024/03/21 02:37:08;;;;;;;23.65;14.45;;;13.60;99.90;;;;;;4160139;28;20113;-68
2024/03/21 02:39:08;;;;;;;22.80;14.82;;;13.60;99.90;;;;;;4161723;28;20091;-68
2024/03/21 02:41:09;;;;;;;21.05;15.38;;;13.60;99.90;;;;;;4160270;28;20525;-66
2024/03/21 02:43:10;;;;;;;22.42;15.60;;;13.60;99.90;;;;;;4160721;28;20033;-68
2024/03/21 02:45:10;;;;;;;27.27;16.20;;;13.60;99.90;;;;;;4159035;28;20380;-68
2024/03/21 02:47:11;;;;;;;23.80;16.38;;;13.60;99.90;;;;;;4160390;28;20030;-68
2024/03/21 02:49:12;;;;;;;19.50;14.10;;;13.60;99.90;;;;;;4161433;28;20455;-67
2024/03/21 02:51:13;;;;;;;19.63;14.00;;;13.60;99.90;;;;;;4159917;28;20041;-68
2024/03/21 02:53:14;;;;;;;18.60;13.27;;;13.60;99.90;;;;;;4161667;28;20179;-68
2024/03/21 02:55:15;;;;;;;19.38;13.88;;;13.60;99.90;;;;;;4161270;28;20148;-68
2024/03/21 02:57:16;;;;;;;22.85;15.35;;;13.60;99.90;;;;;;4160120;28;20033;-67
2024/03/21 02:59:16;;;;;;;24.05;16.42;;;13.70;99.90;;;;;;4157394;28;20041;-67
2024/03/21 03:01:17;;;;;;;22.08;15.07;;;13.60;99.90;;;;;;4160415;28;20084;-67
2024/03/21 03:03:18;;;;;;;25.10;14.75;;;13.60;99.90;;;;;;4159582;28;20048;-68
2024/03/21 03:05:20;;;;;;;22.20;16.00;;;13.70;99.90;;;;;;4160263;28;20049;-68
2024/03/21 03:07:21;;;;;;;20.13;14.52;;;13.70;99.90;;;;;;4161881;28;20095;-68
2024/03/21 03:09:21;;;;;;;20.52;14.75;;;13.70;99.90;;;;;;4160914;28;20038;-68
2024/03/21 03:11:22;;;;;;;23.38;15.32;;;13.70;99.90;;;;;;4152749;28;20363;-68
2024/03/21 03:13:23;;;;;;;21.58;14.35;;;13.70;99.90;;;;;;4161237;28;20030;-67
2024/03/21 03:15:23;;;;;;;21.80;14.40;;;13.80;99.90;;;;;;4161242;28;20049;-67
2024/03/21 03:17:24;;;;;;;22.42;15.13;;;13.70;99.90;;;;;;4161702;28;20478;-67
2024/03/21 03:19:24;;;;;;;20.73;14.10;;;13.80;99.90;;;;;;4158679;28;20032;-68
2024/03/21 03:21:25;;;;;;;19.17;14.02;;;13.80;99.90;;;;;;4145269;28;20551;-67
2024/03/21 03:23:25;;;;;;;21.77;15.38;;;13.80;99.90;;;;;;4160082;28;20390;-67
2024/03/21 03:25:26;;;;;;;20.55;13.60;;;13.80;99.90;;;;;;4160973;28;20033;-67
2024/03/21 03:27:27;;;;;;;19.85;14.27;;;13.80;99.90;;;;;;4161600;28;20034;-68
2024/03/21 03:29:27;;;;;;;22.15;14.77;;;13.80;99.90;;;;;;4158201;28;20500;-68
2024/03/21 03:31:28;;;;;;;20.15;14.55;;;13.80;99.90;;;;;;4156184;28;20386;-68
2024/03/21 03:35:47;;;;;;;25.40;15.23;;;13.80;99.90;;;;;;4160660;28;20045;-68
2024/03/21 03:37:48;;;;;;;26.63;17.50;;;13.80;99.90;;;;;;4158576;28;20478;-68
2024/03/21 03:39:48;;;;;;;26.50;16.52;;;13.70;99.90;;;;;;4155896;28;20121;-68
2024/03/21 03:41:49;;;;;;;24.48;16.55;;;13.70;99.90;;;;;;4158062;28;20087;-68
2024/03/21 03:43:50;;;;;;;24.35;15.18;;;13.70;99.90;;;;;;4161185;28;20394;-67
2024/03/21 03:45:50;;;;;;;20.80;14.77;;;13.70;99.90;;;;;;4160533;28;20053;-67
2024/03/21 03:47:51;;;;;;;19.15;14.25;;;13.70;99.90;;;;;;4158982;28;20049;-68
2024/03/21 03:49:51;;;;;;;21.67;15.05;;;13.70;99.90;;;;;;4158814;28;20030;-68
2024/03/21 03:51:54;;;;;;;23.35;14.60;;;13.70;99.90;;;;;;4159974;28;20038;-67
2024/03/21 03:53:54;;;;;;;26.48;15.25;;;13.70;99.90;;;;;;4161386;28;20072;-68
2024/03/21 03:55:55;;;;;;;23.92;16.30;;;13.70;99.90;;;;;;4160631;28;20489;-68
2024/03/21 03:57:56;;;;;;;22.55;15.13;;;13.70;99.90;;;;;;4161155;28;20045;-67
2024/03/21 03:59:58;;;;;;;21.80;15.07;;;13.70;99.90;;;;;;4160254;28;20030;-68
2024/03/21 04:01:58;;;;;;;23.95;15.18;;;13.70;99.90;;;;;;4160622;28;20553;-67
2024/03/21 04:03:59;;;;;;;25.02;16.58;;;13.70;99.90;;;;;;4160849;28;20045;-67
2024/03/21 04:06:00;;;;;;;26.00;17.50;;;13.70;99.90;;;;;;4160318;28;20053;-68
2024/03/21 04:08:01;;;;;;;30.60;20.00;;;13.70;99.90;;;;;;4157928;28;20422;-67
2024/03/21 04:10:02;;;;;;;26.25;17.23;;;13.60;99.90;;;;;;4160534;28;20049;-67
2024/03/21 04:12:03;;;;;;;28.85;19.20;;;13.60;99.90;;;;;;4160756;28;20413;-68
2024/03/21 04:14:04;;;;;;;33.10;20.95;;;13.50;99.90;;;;;;4160882;28;20120;-68
2024/03/21 04:16:04;;;;;;;32.75;20.40;;;13.50;99.90;;;;;;4151656;28;20049;-68
2024/03/21 04:18:05;;;;;;;36.17;21.58;;;13.40;99.90;;;;;;4154885;28;20063;-67
2024/03/21 04:20:06;;;;;;;36.08;21.42;;;13.30;99.90;;;;;;4160386;28;20462;-68
2024/03/21 04:22:07;;;;;;;37.97;22.50;;;13.20;99.90;;;;;;4160128;28;20481;-67
2024/03/21 04:24:07;;;;;;;35.92;21.17;;;13.20;99.90;;;;;;4160870;28;20037;-68
2024/03/21 04:26:08;;;;;;;36.60;20.67;;;13.10;99.90;;;;;;4160015;28;20032;-67
2024/03/21 04:28:08;;;;;;;33.63;20.63;;;13.10;99.90;;;;;;4159381;28;20033;-68
2024/03/21 04:30:10;;;;;;;33.90;20.00;;;13.00;99.90;;;;;;4160031;28;20029;-68
2024/03/21 04:32:15;;;;;;;36.30;21.38;;;12.90;99.90;;;;;;4159871;28;20139;-67
2024/03/21 04:34:16;;;;;;;33.75;21.33;;;12.90;99.90;;;;;;4160723;28;20378;-67
2024/03/21 04:36:17;;;;;;;30.42;19.67;;;12.80;99.90;;;;;;4159343;28;20042;-67
2024/03/21 04:38:17;;;;;;;30.98;20.60;;;12.80;99.90;;;;;;4153629;28;20107;-68
2024/03/21 04:40:18;;;;;;;34.45;20.42;;;12.80;99.90;;;;;;4159911;28;20044;-68
2024/03/21 04:42:19;;;;;;;36.45;22.10;;;12.80;99.90;;;;;;4160090;28;20038;-67
2024/03/21 04:44:20;;;;;;;34.55;22.15;;;12.70;99.90;;;;;;4159428;28;20037;-68
2024/03/21 04:46:21;;;;;;;36.22;22.00;;;12.70;99.90;;;;;;4153156;28;20037;-68
2024/03/21 04:48:22;;;;;;;39.78;21.92;;;12.70;99.90;;;;;;4158594;28;20053;-68
2024/03/21 04:50:23;;;;;;;37.03;22.70;;;12.60;99.90;;;;;;4161913;28;20037;-68
2024/03/21 04:52:25;;;;;;;31.08;19.35;;;12.60;99.90;;;;;;4163471;28;20034;-68
2024/03/21 04:54:25;;;;;;;35.58;21.02;;;12.60;99.90;;;;;;4145521;28;20116;-68
2024/03/21 04:56:26;;;;;;;33.47;19.90;;;12.60;99.90;;;;;;4162537;28;20509;-68
2024/03/21 04:58:26;;;;;;;40.33;23.48;;;12.60;99.90;;;;;;4161718;28;20068;-68
2024/03/21 05:00:27;;;;;;;34.75;21.73;;;12.50;99.90;;;;;;4157208;28;20053;-68
2024/03/21 05:02:28;;;;;;;32.20;19.35;;;12.50;99.90;;;;;;4156770;28;20036;-68
2024/03/21 05:04:28;;;;;;;33.63;20.02;;;12.50;99.90;;;;;;4158220;28;20123;-68
2024/03/21 05:06:29;;;;;;;32.15;20.40;;;12.50;99.90;;;;;;4158421;28;20044;-68
2024/03/21 05:08:29;;;;;;;33.72;21.02;;;12.50;99.90;;;;;;4158107;28;20033;-68
2024/03/21 05:10:30;;;;;;;32.47;20.15;;;12.50;99.90;;;;;;4159854;28;20165;-67
2024/03/21 05:12:31;;;;;;;34.05;18.63;;;12.50;99.90;;;;;;4159326;28;20062;-67
2024/03/21 05:14:34;;;;;;;35.45;20.58;;;12.50;99.90;;;;;;4159998;28;20040;-68
2024/03/21 05:16:35;;;;;;;29.23;19.27;;;12.50;99.90;;;;;;4158167;28;20061;-68
2024/03/21 05:18:35;;;;;;;29.65;18.85;;;12.50;99.90;;;;;;4160178;28;20033;-68
2024/03/21 05:20:38;;;;;;;31.50;19.60;;;12.50;99.90;;;;;;4159482;28;20092;-68
2024/03/21 05:22:38;;;;;;;31.50;19.08;;;12.50;99.90;;;;;;4161266;28;20559;-68
2024/03/21 05:24:39;;;;;;;34.50;21.05;;;12.50;99.90;;;;;;4161250;28;20131;-68
2024/03/21 05:26:40;;;;;;;33.53;20.70;;;12.50;99.90;;;;;;4158952;28;20030;-68
2024/03/21 05:28:40;;;;;;;39.45;22.55;;;12.50;99.90;;;;;;4160165;28;20034;-68
2024/03/21 05:30:41;;;;;;;32.85;21.55;;;12.50;99.90;;;;;;4158085;28;20038;-68
2024/03/21 05:32:41;;;;;;;29.95;19.35;;;12.50;99.90;;;;;;4161422;28;20099;-68
2024/03/21 05:34:42;;;;;;;36.72;22.42;;;12.50;99.90;;;;;;4159903;28;20049;-68
2024/03/21 05:36:43;;;;;;;34.55;20.88;;;12.50;99.90;;;;;;4156020;28;20040;-68
2024/03/21 05:38:47;;;;;;;38.33;22.08;;;12.40;99.90;;;;;;4157156;28;20482;-68
2024/03/21 05:40:48;;;;;;;41.03;23.50;;;12.40;99.90;;;;;;4159371;28;20136;-68
2024/03/21 05:42:48;;;;;;;36.63;21.33;;;12.40;99.90;;;;;;4154419;28;20161;-75
2024/03/21 05:44:49;;;;;;;32.83;20.25;;;12.40;99.90;;;;;;4156368;28;20068;-75
2024/03/21 05:46:52;;;;;;;33.92;21.13;;;12.40;99.90;;;;;;4157592;28;20045;-74
2024/03/21 05:48:54;;;;;;;32.67;21.30;;;12.40;99.90;;;;;;4157836;28;20498;-75
2024/03/21 05:50:55;;;;;;;31.13;19.33;;;12.40;99.90;;;;;;4157966;28;20042;-74
2024/03/21 05:52:55;;;;;;;32.05;20.48;;;12.40;99.90;;;;;;4158618;28;20034;-75
2024/03/21 05:54:58;;;;;;;33.08;21.67;;;12.40;99.90;;;;;;4158582;28;20036;-64
2024/03/21 05:56:58;;;;;;;34.17;20.95;;;12.40;99.90;;;;;;4155958;28;20038;-65
2024/03/21 05:58:59;;;;;;;30.08;20.27;;;12.40;99.90;;;;;;4152707;28;20025;-65
2024/03/21 06:03:08;;;;;;;34.47;21.30;;;12.40;99.90;;;;;;4160999;28;20299;-65
2024/03/21 06:05:08;;;;;;;40.05;24.50;;;12.40;99.90;;;;;;4157293;28;20067;-65
2024/03/21 06:07:09;;;;;;;32.88;20.90;;;12.30;99.90;;;;;;4154952;28;20105;-65
2024/03/21 06:09:14;;;;;;;34.22;22.23;;;12.30;99.90;;;;;;4160267;28;20117;-65
2024/03/21 06:11:15;;;;;;;39.78;23.92;;;12.30;99.90;;;;;;4158767;28;20033;-64
2024/03/21 06:13:15;;;;;;;37.65;22.83;;;12.20;99.90;;;;;;4175477;28;20040;-66
2024/03/21 06:15:16;;;;;;;34.03;23.17;;;12.20;99.90;;;;;;4157119;28;20413;-65
2024/03/21 06:17:16;;;;;;;40.90;24.75;;;12.20;99.90;;;;;;4158385;28;20096;-66
2024/03/21 06:19:17;;;;;;;35.50;22.67;;;12.20;99.90;;;;;;4158113;28;20699;-65
2024/03/21 06:21:18;;;;;;;35.95;22.92;;;12.20;99.90;;;;;;4151607;28;20140;-66
2024/03/21 06:23:18;;;;;;;34.70;22.92;;;12.20;99.90;;;;;;4153608;28;20037;-66
2024/03/21 06:25:19;;;;;;;35.00;23.17;;;12.20;99.90;;;;;;4158845;28;20130;-66
2024/03/21 06:27:19;;;;;;;33.28;22.17;;;12.20;99.90;;;;;;4153578;28;20037;-66
2024/03/21 06:29:20;;;;;;;33.17;21.65;;;12.20;99.90;;;;;;4158007;28;20478;-66
2024/03/21 06:31:20;;;;;;;30.13;19.38;;;12.20;99.90;;;;;;4157469;28;20053;-65
2024/03/21 06:33:21;;;;;;;33.80;21.63;;;12.20;99.90;;;;;;4158168;28;20044;-65
2024/03/21 06:35:22;;;;;;;29.83;18.95;;;12.20;99.90;;;;;;4159602;28;20034;-65
2024/03/21 06:37:22;;;;;;;32.85;20.92;;;12.30;99.90;;;;;;4156804;28;20086;-65
2024/03/21 06:39:23;;;;;;;32.20;19.60;;;12.20;99.90;;;;;;4150145;28;20058;-65
2024/03/21 06:41:24;;;;;;;25.17;17.05;;;12.30;99.90;;;;;;4150024;28;20108;-65
2024/03/21 06:43:24;;;;;;;24.95;16.35;;;12.30;99.90;;;;;;4153301;28;20068;-65
2024/03/21 06:45:25;;;;;;;27.30;18.08;;;12.30;99.90;;;;;;4154213;28;20536;-65
2024/03/21 06:47:26;;;;;;;25.38;17.58;;;12.30;99.90;;;;;;4160945;28;20041;-65
2024/03/21 06:49:26;;;;;;;28.02;17.20;;;12.30;99.90;;;;;;4157516;28;20052;-65
2024/03/21 06:51:27;;;;;;;23.40;16.15;;;12.30;99.90;;;;;;4150791;28;20038;-65
2024/03/21 06:53:27;;;;;;;24.63;15.55;;;12.30;99.90;;;;;;4154320;28;20033;-65
2024/03/21 06:55:28;;;;;;;23.95;16.20;;;12.40;99.90;;;;;;4158377;28;20175;-65
2024/03/21 06:57:31;;;;;;;21.02;14.82;;;12.40;99.90;;;;;;4153373;28;20468;-65
2024/03/21 06:59:31;;;;;;;19.02;13.82;;;12.40;99.90;;;;;;4158657;28;20393;-66
2024/03/21 07:01:32;;;;;;;19.15;13.68;;;12.50;99.90;;;;;;4158520;28;20045;-66
2024/03/21 07:03:32;;;;;;;21.15;14.13;;;12.50;99.90;;;;;;4153331;28;20038;-66
2024/03/21 07:05:33;;;;;;;22.77;14.75;;;12.50;99.90;;;;;;4159431;28;20088;-65
2024/03/21 07:07:34;;;;;;;18.45;13.07;;;12.50;99.90;;;;;;4159189;28;20117;-65
2024/03/21 07:09:35;;;;;;;21.80;14.38;;;12.50;99.90;;;;;;4152797;28;20076;-65
2024/03/21 07:11:36;;;;;;;23.27;15.10;;;12.50;99.90;;;;;;4155528;28;20038;-65
2024/03/21 07:13:36;;;;;;;20.08;12.02;;;12.50;99.90;;;;;;4156544;28;20037;-66
2024/03/21 07:15:41;;;;;;;13.95;10.05;;;12.40;99.90;;;;;;4155493;28;20064;-65
2024/03/21 07:17:42;;;;;;;14.15;9.77;;;12.40;99.90;;;;;;4158819;28;20044;-65
2024/03/21 07:19:44;;;;;;;13.35;9.75;;;12.40;99.90;;;;;;4150484;28;20038;-65
2024/03/21 07:21:45;;;;;;;15.43;10.65;;;12.40;99.90;;;;;;4154368;28;20084;-65
2024/03/21 07:23:45;;;;;;;16.70;10.40;;;12.40;99.90;;;;;;4155277;28;20048;-65
2024/03/21 07:25:46;;;;;;;14.85;9.75;;;12.30;99.90;;;;;;4158050;28;20041;-65
2024/03/21 07:27:47;;;;;;;12.85;8.73;;;12.30;99.90;;;;;;4157926;28;20384;-65
2024/03/21 07:29:48;;;;;;;9.55;7.55;;;12.30;99.90;;;;;;4154455;28;20441;-65
2024/03/21 07:31:48;;;;;;;10.18;6.97;;;12.20;99.90;;;;;;4154819;28;20037;-65
2024/03/21 07:33:51;;;;;;;9.02;6.68;;;12.20;99.90;;;;;;4158744;28;20052;-65
2024/03/21 07:35:55;;;;;;;10.00;6.57;;;12.30;99.90;;;;;;4154963;28;20089;-65
2024/03/21 07:37:56;;;;;;;10.35;6.90;;;12.30;99.90;;;;;;4156460;28;20057;-65
2024/03/21 07:40:01;;;;;;;11.10;6.40;;;12.30;99.90;;;;;;4149864;28;20099;-65
2024/03/21 07:42:03;;;;;;;8.07;5.60;;;12.30;99.90;;;;;;4157240;28;20083;-65
2024/03/21 07:44:04;;;;;;;8.45;5.95;;;12.30;99.90;;;;;;4155321;28;20032;-66
2024/03/21 07:46:05;;;;;;;8.18;5.45;;;12.30;99.90;;;;;;4146850;28;20406;-65
2024/03/21 07:48:05;;;;;;;6.40;4.85;;;12.30;99.90;;;;;;4149715;28;20400;-65
2024/03/21 07:50:06;;;;;;;6.38;4.72;;;12.30;99.90;;;;;;4146844;28;20059;-66
2024/03/21 07:52:07;;;;;;;10.02;6.10;;;12.40;99.90;;;;;;4142747;28;21263;-65
2024/03/21 07:54:07;;;;;;;11.77;6.70;;;12.40;99.90;;;;;;4139752;28;20037;-65
2024/03/21 07:56:08;;;;;;;9.05;6.38;;;12.40;99.90;;;;;;4144245;28;20517;-65
2024/03/21 07:58:08;;;;;;;9.77;5.57;;;12.40;99.90;;;;;;4150942;28;20046;-65
2024/03/21 08:00:09;;;;;;;8.40;5.88;;;12.40;99.90;;;;;;4151803;28;20063;-65
2024/03/21 08:02:10;;;;;;;11.05;6.18;;;12.40;99.90;;;;;;4149922;28;20478;-65
2024/03/21 08:04:11;;;;;;;8.05;5.50;;;12.40;99.90;;;;;;4181499;28;20029;-65
2024/03/21 08:06:11;;;;;;;6.88;4.72;;;12.50;99.90;;;;;;4150362;28;20533;-65
2024/03/21 08:08:12;;;;;;;6.75;4.43;;;12.40;99.90;;;;;;4154053;28;20049;-65
2024/03/21 08:10:13;;;;;;;6.15;4.28;;;12.40;99.90;;;;;;4149282;28;20392;-65
2024/03/21 08:12:14;;;;;;;5.38;3.80;;;12.40;99.90;;;;;;4155035;28;20385;-65
2024/03/21 08:14:14;;;;;;;7.68;4.68;;;12.40;99.90;;;;;;4155099;28;20037;-65
2024/03/21 08:16:15;;;;;;;4.85;3.80;;;12.30;99.90;;;;;;4150432;28;20361;-71
2024/03/21 08:18:15;;;;;;;5.03;4.00;;;12.30;99.90;;;;;;4150750;28;20029;-72
2024/03/21 08:20:16;;;;;;;3.58;3.10;;;12.30;99.90;;;;;;4153812;28;20299;-71
2024/03/21 08:22:17;;;;;;;6.90;4.15;;;12.30;99.90;;;;;;4154383;28;20076;-71
2024/03/21 08:24:20;;;;;;;5.53;3.60;;;12.20;99.90;;;;;;4157093;28;20128;-71
2024/03/21 08:26:21;;;;;;;4.38;3.78;;;12.20;99.90;;;;;;4153214;28;20054;-71
2024/03/21 08:28:21;;;;;;;6.43;3.72;;;12.10;99.90;;;;;;4156841;28;20056;-71
2024/03/21 08:30:22;;;;;;;6.55;3.97;;;12.10;99.90;;;;;;4151561;28;20372;-72
2024/03/21 08:32:23;;;;;;;7.30;4.53;;;12.00;99.90;;;;;;4152641;28;20184;-71
2024/03/21 08:34:24;;;;;;;4.40;3.75;;;11.90;99.90;;;;;;4155758;28;20080;-71
2024/03/21 08:36:24;;;;;;;5.88;4.30;;;11.90;99.90;;;;;;4154472;28;20057;-71
2024/03/21 08:38:25;;;;;;;7.47;4.32;;;11.80;99.90;;;;;;4156670;28;20042;-71
2024/03/21 08:40:25;;;;;;;5.28;4.03;;;11.90;99.90;;;;;;4152048;28;20700;-69
2024/03/21 08:42:27;;;;;;;4.85;3.85;;;11.80;99.90;;;;;;4158727;28;20090;-70
2024/03/21 08:44:28;;;;;;;4.57;3.63;;;11.80;99.90;;;;;;4157116;28;20041;-72
2024/03/21 08:46:28;;;;;;;4.63;3.40;;;11.80;99.90;;;;;;4156215;28;20103;-71
2024/03/21 08:48:29;;;;;;;4.25;3.58;;;11.80;99.90;;;;;;4155749;28;20045;-71
2024/03/21 08:50:29;;;;;;;5.28;3.53;;;11.90;99.90;;;;;;4154175;28;20144;-71
2024/03/21 08:52:30;;;;;;;6.65;4.75;;;11.80;99.90;;;;;;4155740;28;20494;-71
2024/03/21 08:54:31;;;;;;;5.43;3.72;;;11.90;99.90;;;;;;4186463;28;20037;-71
2024/03/21 08:56:34;;;;;;;4.38;3.67;;;11.90;99.90;;;;;;4150295;28;20057;-71
2024/03/21 08:58:34;;;;;;;5.13;3.80;;;11.90;99.90;;;;;;4155222;28;20164;-71
2024/03/21 09:00:37;;;;;;;4.60;4.00;;;12.00;99.90;;;;;;4155099;28;20504;-71
2024/03/21 09:02:38;;;;;;;5.80;3.58;;;12.00;99.90;;;;;;4155476;28;20040;-70
2024/03/21 09:04:38;;;;;;;5.13;3.33;;;12.00;99.90;;;;;;4155900;28;20045;-71
2024/03/21 09:06:39;;;;;;;6.15;3.65;;;12.00;99.90;;;;;;4152520;28;20053;-71
2024/03/21 09:08:40;;;;;;;4.57;3.42;;;12.10;99.90;;;;;;4151584;28;20048;-71
2024/03/21 09:10:41;;;;;;;6.53;3.65;;;12.10;99.90;;;;;;4152803;28;20035;-71
2024/03/21 09:12:42;;;;;;;3.78;3.38;;;12.10;99.90;;;;;;4156434;28;20482;-71
2024/03/21 09:14:43;;;;;;;6.18;3.45;;;12.20;99.90;;;;;;4157609;28;20049;-71
2024/03/21 09:16:44;;;;;;;7.18;4.40;;;12.20;99.90;;;;;;4155023;28;20128;-71
2024/03/21 09:18:45;;;;;;;4.97;3.50;;;12.10;99.90;;;;;;4154711;28;20138;-71
2024/03/21 09:20:46;;;;;;;5.78;3.97;;;12.10;99.90;;;;;;4155421;28;20029;-71
2024/03/21 09:22:47;;;;;;;5.15;3.28;;;12.20;99.90;;;;;;4156196;28;20398;-71
2024/03/21 09:24:47;;;;;;;3.70;2.88;;;12.30;99.90;;;;;;4153159;28;20037;-71
2024/03/21 09:26:48;;;;;;;4.35;3.28;;;12.30;99.90;;;;;;4152064;28;20041;-71
2024/03/21 09:28:50;;;;;;;6.45;3.67;;;12.30;99.90;;;;;;4153511;28;20042;-71
2024/03/21 09:30:51;;;;;;;4.07;2.90;;;12.40;99.90;;;;;;4152456;28;20045;-71
2024/03/21 09:32:51;;;;;;;5.55;2.90;;;12.40;99.90;;;;;;4156342;28;20045;-71
2024/03/21 09:34:52;;;;;;;3.08;2.60;;;12.40;99.90;;;;;;4156076;28;20096;-71
2024/03/21 09:36:53;;;;;;;6.70;3.10;;;12.40;99.90;;;;;;4152735;28;20049;-71
2024/03/21 09:38:53;;;;;;;5.32;3.17;;;12.40;99.90;;;;;;4154344;28;20133;-71
2024/03/21 09:40:59;;;;;;;3.92;2.95;;;12.50;99.90;;;;;;4152894;28;20037;-71
2024/03/21 09:43:00;;;;;;;6.30;3.97;;;12.50;99.90;;;;;;4169366;28;20681;-72
2024/03/21 09:45:01;;;;;;;3.45;2.70;;;12.50;99.90;;;;;;4155239;28;20046;-71
2024/03/21 09:47:05;;;;;;;5.80;3.17;;;12.50;99.90;;;;;;4153568;28;20033;-71
2024/03/21 09:49:13;;;;;;;4.10;2.90;;;12.50;99.90;;;;;;4152857;28;20120;-71
2024/03/21 09:51:20;;;;;;;6.20;3.33;;;12.50;99.90;;;;;;4152784;28;20033;-71
2024/03/21 09:53:20;;;;;;;3.50;2.72;;;12.60;99.90;;;;;;4152715;28;20502;-71
2024/03/21 09:55:21;;;;;;;5.43;3.40;;;12.60;99.90;;;;;;4154200;28;20041;-71
2024/03/21 09:57:22;;;;;;;5.75;3.10;;;12.60;99.90;;;;;;4147305;28;20076;-71
2024/03/21 09:59:22;;;;;;;3.13;2.40;;;12.60;99.90;;;;;;4155017;28;20683;-71
2024/03/21 10:01:24;;;;;;;5.72;2.33;;;12.60;99.90;;;;;;4154693;28;20121;-72
2024/03/21 10:03:24;;;;;;;2.92;2.08;;;12.60;99.90;;;;;;4157210;28;20531;-71
2024/03/21 10:05:25;;;;;;;4.90;2.08;;;12.60;99.90;;;;;;4156397;28;20061;-71
2024/03/21 10:07:25;;;;;;;4.40;1.92;;;12.70;99.90;;;;;;4133233;28;20507;-71
2024/03/21 10:09:27;;;;;;;2.70;1.92;;;12.70;99.90;;;;;;4155084;28;20084;-71
2024/03/21 10:11:28;;;;;;;4.57;2.05;;;12.70;99.90;;;;;;4154192;28;20053;-71
2024/03/21 10:13:28;;;;;;;6.07;2.55;;;12.80;99.90;;;;;;4155237;28;20091;-70
2024/03/21 10:15:32;;;;;;;4.10;2.60;;;12.80;99.90;;;;;;4154546;28;20045;-70
2024/03/21 10:17:34;;;;;;;5.70;2.25;;;12.80;99.90;;;;;;4153118;28;20034;-71
2024/03/21 10:19:35;;;;;;;3.42;2.10;;;12.70;99.90;;;;;;4154610;28;20038;-70
2024/03/21 10:21:35;;;;;;;2.65;1.60;;;12.70;99.90;;;;;;4153674;28;20584;-71
2024/03/21 10:23:36;;;;;;;4.03;1.67;;;12.70;99.90;;;;;;4184889;28;20111;-71